Time;durP1;ratioP1;P1;durP2;ratioP2;P2;SDS_P1;SDS_P2;PMS_P1;PMS_P2;Temp;Humidity;BMP_temperature;BMP_pressure;BME280_temperature;BME280_humidity;BME280_pressure;Samples;Min_cycle;Max_cycle;Signal;HPM_P1;HPM_P2
2023/11/05 00:00:38;;;;;;;7.38;5.30;;;;;;;9.13;100.00;98162.41;5093350;28;20043;-45
2023/11/05 00:03:07;;;;;;;10.07;5.78;;;;;;;9.01;100.00;98158.19;5093445;28;20040;-47
2023/11/05 00:05:35;;;;;;;11.60;5.70;;;;;;;9.05;100.00;98154.25;5093118;28;20040;-45
2023/11/05 00:08:03;;;;;;;9.05;5.53;;;;;;;9.22;100.00;98143.97;5093426;28;20048;-45
2023/11/05 00:10:32;;;;;;;8.98;5.80;;;;;;;9.24;100.00;98136.69;5093678;28;20040;-44
2023/11/05 00:13:00;;;;;;;9.85;5.45;;;;;;;9.30;100.00;98137.00;5093173;28;20135;-45
2023/11/05 00:15:29;;;;;;;9.35;5.47;;;;;;;9.37;100.00;98147.97;5093611;28;20130;-43
2023/11/05 00:17:59;;;;;;;9.98;6.10;;;;;;;9.38;100.00;98149.63;5093383;28;20144;-46
2023/11/05 00:20:27;;;;;;;7.75;5.22;;;;;;;9.43;100.00;98158.88;5093497;28;20111;-44
2023/11/05 00:22:56;;;;;;;8.43;5.15;;;;;;;9.45;100.00;98150.75;5093170;28;20056;-44
2023/11/05 00:25:25;;;;;;;10.18;5.57;;;;;;;9.45;100.00;98156.91;5093253;28;20051;-46
2023/11/05 00:27:54;;;;;;;8.45;5.22;;;;;;;9.46;100.00;98152.47;5092597;28;20048;-44
2023/11/05 00:30:25;;;;;;;8.80;5.40;;;;;;;9.50;100.00;98148.53;5093441;28;20044;-43
2023/11/05 00:32:53;;;;;;;8.45;5.10;;;;;;;9.44;100.00;98155.22;5093196;28;20040;-45
2023/11/05 00:35:23;;;;;;;9.07;5.40;;;;;;;9.51;100.00;98150.22;5093378;28;20083;-44
2023/11/05 00:37:52;;;;;;;7.80;4.93;;;;;;;9.49;100.00;98149.53;5093041;28;20414;-44
2023/11/05 00:40:20;;;;;;;8.65;4.78;;;;;;;9.56;100.00;98157.81;5092861;28;20044;-44
2023/11/05 00:42:48;;;;;;;8.48;4.78;;;;;;;9.60;100.00;98157.38;5092653;28;20054;-44
2023/11/05 00:45:17;;;;;;;8.10;5.07;;;;;;;9.69;100.00;98156.56;5092979;28;20135;-43
2023/11/05 00:47:45;;;;;;;9.38;5.28;;;;;;;9.57;100.00;98149.69;5092561;28;20084;-44
2023/11/05 00:50:13;;;;;;;9.25;5.25;;;;;;;9.59;100.00;98152.22;5092749;28;20040;-44
2023/11/05 00:52:43;;;;;;;9.93;5.10;;;;;;;9.64;100.00;98155.28;5092471;28;20067;-47
2023/11/05 00:55:11;;;;;;;9.15;5.40;;;;;;;9.64;100.00;98153.47;5092413;28;20063;-44
2023/11/05 00:57:40;;;;;;;8.70;5.40;;;;;;;9.69;100.00;98153.06;5092613;28;20063;-45
2023/11/05 01:00:12;;;;;;;8.70;5.47;;;;;;;9.69;100.00;98147.75;5092534;28;20067;-43
2023/11/05 01:02:52;;;;;;;9.18;5.18;;;;;;;9.74;100.00;98151.66;5092360;28;20044;-48
2023/11/05 01:05:21;;;;;;;11.40;5.63;;;;;;;9.78;100.00;98156.72;5092336;28;20044;-45
2023/11/05 01:07:51;;;;;;;8.55;5.20;;;;;;;9.74;100.00;98151.66;5092431;28;20052;-47
2023/11/05 01:10:20;;;;;;;7.80;5.30;;;;;;;9.72;100.00;98145.63;5092447;28;20105;-44
2023/11/05 01:12:48;;;;;;;8.13;5.47;;;;;;;9.64;100.00;98142.81;5092300;28;20484;-43
2023/11/05 01:15:16;;;;;;;9.68;5.60;;;;;;;9.70;100.00;98144.94;5092331;28;20235;-44
2023/11/05 01:17:46;;;;;;;8.60;5.18;;;;;;;9.82;100.00;98140.31;5092284;28;20048;-44
2023/11/05 01:20:14;;;;;;;9.63;5.18;;;;;;;9.73;100.00;98128.69;5092306;28;20048;-45
2023/11/05 01:22:42;;;;;;;9.32;5.55;;;;;;;9.83;100.00;98141.16;5092169;28;20064;-45
2023/11/05 01:25:12;;;;;;;10.13;5.53;;;;;;;9.69;100.00;98137.94;5092200;28;20044;-45
2023/11/05 01:27:40;;;;;;;10.30;5.55;;;;;;;9.79;100.00;98126.44;5092174;28;20048;-44
2023/11/05 01:30:10;;;;;;;9.18;5.03;;;;;;;9.84;100.00;98129.53;5092090;28;20079;-45
2023/11/05 01:32:38;;;;;;;11.18;5.30;;;;;;;9.88;100.00;98130.94;5091685;28;20054;-45
2023/11/05 01:35:07;;;;;;;9.18;5.22;;;;;;;9.95;100.00;98121.44;5092365;28;20464;-45
2023/11/05 01:37:36;;;;;;;9.73;5.47;;;;;;;9.98;100.00;98118.47;5092172;28;20082;-45
2023/11/05 01:40:05;;;;;;;8.70;5.65;;;;;;;9.88;100.00;98114.97;5091845;28;20393;-44
2023/11/05 01:42:35;;;;;;;13.70;5.30;;;;;;;9.79;100.00;98106.00;5091942;28;20135;-44
2023/11/05 01:45:04;;;;;;;9.15;5.45;;;;;;;9.93;100.00;98102.91;5091805;28;20076;-45
2023/11/05 01:47:33;;;;;;;10.55;5.63;;;;;;;9.73;100.00;98095.88;5092184;28;20109;-45
2023/11/05 01:50:03;;;;;;;10.25;5.82;;;;;;;9.80;100.00;98080.22;5091895;28;20059;-46
2023/11/05 01:52:32;;;;;;;10.40;5.28;;;;;;;9.76;100.00;98074.34;5091674;28;20129;-46
2023/11/05 01:55:02;;;;;;;9.23;5.75;;;;;;;9.89;100.00;98074.03;5091259;28;20044;-45
2023/11/05 01:57:31;;;;;;;10.35;5.65;;;;;;;9.94;100.00;98069.13;5091505;28;20044;-46
2023/11/05 02:00:01;;;;;;;8.75;5.28;;;;;;;9.98;100.00;98073.19;5091442;28;20073;-44
2023/11/05 02:02:31;;;;;;;10.27;5.53;;;;;;;9.99;100.00;98070.38;5091720;28;20070;-44
2023/11/05 02:05:00;;;;;;;10.50;5.72;;;;;;;9.92;100.00;98069.25;5091364;28;20083;-45
2023/11/05 02:07:28;;;;;;;8.93;5.53;;;;;;;9.96;100.00;98069.84;5091283;28;20052;-44
2023/11/05 02:09:57;;;;;;;10.65;6.20;;;;;;;10.11;100.00;98076.41;5091242;28;20040;-45
2023/11/05 02:12:26;;;;;;;10.88;5.40;;;;;;;10.20;100.00;98067.56;5091249;28;20044;-45
2023/11/05 02:14:55;;;;;;;10.20;5.70;;;;;;;10.22;100.00;98073.59;5091342;28;20047;-47
2023/11/05 02:17:27;;;;;;;9.55;5.47;;;;;;;10.26;100.00;98063.53;5091136;28;20481;-47
2023/11/05 02:19:56;;;;;;;10.48;5.82;;;;;;;10.24;100.00;98068.16;5091276;28;20405;-45
2023/11/05 02:22:28;;;;;;;9.23;4.80;;;;;;;10.29;100.00;98072.06;5091192;28;20052;-44
2023/11/05 02:24:58;;;;;;;9.02;5.70;;;;;;;10.22;100.00;98067.44;5090889;28;20052;-45
2023/11/05 02:27:26;;;;;;;9.15;5.38;;;;;;;10.22;100.00;98065.63;5091034;28;20051;-44
2023/11/05 02:29:55;;;;;;;11.27;5.60;;;;;;;10.12;100.00;98069.25;5091296;28;20048;-46
2023/11/05 02:32:23;;;;;;;9.02;5.68;;;;;;;10.22;100.00;98070.94;5091268;28;20048;-44
2023/11/05 02:34:52;;;;;;;9.23;5.50;;;;;;;10.25;100.00;98065.34;5091127;28;20401;-45
2023/11/05 02:37:20;;;;;;;10.02;5.65;;;;;;;10.30;100.00;98063.06;5090896;28;20044;-45
2023/11/05 02:39:48;;;;;;;10.50;5.80;;;;;;;10.17;100.00;98059.84;5091246;28;20084;-45
2023/11/05 02:42:18;;;;;;;9.00;5.80;;;;;;;10.23;100.00;98064.66;5091229;28;20055;-44
2023/11/05 02:44:46;;;;;;;8.88;5.75;;;;;;;10.26;100.00;98067.03;5091092;28;20122;-44
2023/11/05 02:47:15;;;;;;;11.77;5.95;;;;;;;10.20;100.00;98062.22;5090997;28;20454;-45
2023/11/05 02:49:43;;;;;;;10.93;5.82;;;;;;;10.26;100.00;98064.38;5090791;28;20052;-45
2023/11/05 02:52:12;;;;;;;10.40;6.07;;;;;;;10.39;100.00;98071.19;5090799;28;20753;-44
2023/11/05 02:54:41;;;;;;;11.82;6.03;;;;;;;10.43;100.00;98062.78;5090758;28;20460;-46
2023/11/05 02:57:12;;;;;;;13.63;6.45;;;;;;;10.47;100.00;98074.00;5090694;28;20165;-45
2023/11/05 02:59:42;;;;;;;12.13;6.53;;;;;;;10.49;100.00;98056.03;5090359;28;20101;-46
2023/11/05 03:02:10;;;;;;;10.93;6.15;;;;;;;10.51;100.00;98054.88;5090747;28;20117;-46
2023/11/05 03:04:38;;;;;;;11.35;5.80;;;;;;;10.57;100.00;98046.31;5090234;28;20044;-46
2023/11/05 03:07:07;;;;;;;10.43;6.22;;;;;;;10.44;100.00;98036.97;5091509;28;20044;-45
2023/11/05 03:09:35;;;;;;;12.15;5.97;;;;;;;10.38;100.00;98037.53;5094430;28;20047;-45
2023/11/05 03:12:04;;;;;;;9.60;5.90;;;;;;;10.49;100.00;98037.38;5094442;28;20044;-44
2023/11/05 03:14:32;;;;;;;10.73;6.55;;;;;;;10.45;100.00;98023.50;5094242;28;20051;-45
2023/11/05 03:17:02;;;;;;;10.93;6.10;;;;;;;10.46;100.00;98019.84;5092856;28;20451;-45
2023/11/05 03:19:30;;;;;;;12.05;6.28;;;;;;;10.50;100.00;98009.72;5094388;28;20051;-45
2023/11/05 03:21:59;;;;;;;11.98;6.32;;;;;;;10.30;100.00;97996.47;5094145;28;20052;-45
2023/11/05 03:24:27;;;;;;;10.80;6.20;;;;;;;10.23;100.00;97989.19;5094264;28;20083;-45
2023/11/05 03:26:56;;;;;;;9.38;6.07;;;;;;;10.29;100.00;97983.28;5094004;28;20048;-44
2023/11/05 03:29:24;;;;;;;9.73;6.00;;;;;;;10.12;100.00;97963.53;5094098;28;20087;-44
2023/11/05 03:31:53;;;;;;;11.20;5.75;;;;;;;10.21;100.00;97968.00;5093826;28;20454;-46
2023/11/05 03:34:23;;;;;;;11.00;6.00;;;;;;;10.23;100.00;97966.09;5094139;28;20055;-44
2023/11/05 03:36:51;;;;;;;13.85;6.22;;;;;;;10.26;100.00;97971.09;5093868;28;20050;-45
2023/11/05 03:39:19;;;;;;;10.38;6.35;;;;;;;10.31;100.00;97976.81;5093713;28;20062;-45
2023/11/05 03:41:47;;;;;;;10.25;5.65;;;;;;;10.35;100.00;97966.72;5093819;28;20128;-45
2023/11/05 03:44:16;;;;;;;9.85;5.03;;;;;;;10.37;100.00;97964.75;5093528;28;20051;-46
2023/11/05 03:46:44;;;;;;;11.93;5.60;;;;;;;10.44;100.00;97970.34;5093839;28;20403;-44
2023/11/05 03:49:12;;;;;;;12.02;5.47;;;;;;;10.46;100.00;97971.03;5093649;28;20135;-45
2023/11/05 03:51:44;;;;;;;9.98;4.85;;;;;;;10.52;100.00;97968.63;5093469;28;20481;-43
2023/11/05 03:54:13;;;;;;;11.43;5.18;;;;;;;10.47;100.00;97972.72;5093464;28;20063;-44
2023/11/05 03:56:43;;;;;;;8.77;5.03;;;;;;;10.48;100.00;97967.22;5093457;28;20052;-47
2023/11/05 03:59:12;;;;;;;11.38;5.03;;;;;;;10.48;100.00;97961.06;5093539;28;20126;-46
2023/11/05 04:01:40;;;;;;;10.65;5.65;;;;;;;10.33;100.00;97944.72;5093613;28;20136;-46
2023/11/05 04:04:09;;;;;;;10.18;5.38;;;;;;;10.37;100.00;97935.44;5093608;28;20092;-45
2023/11/05 04:06:38;;;;;;;10.18;5.72;;;;;;;10.42;100.00;97940.31;5093221;28;20192;-45
2023/11/05 04:09:08;;;;;;;9.88;5.43;;;;;;;10.32;100.00;97924.38;5093210;28;20140;-44
2023/11/05 04:11:37;;;;;;;9.82;4.88;;;;;;;10.25;100.00;97926.81;5093249;28;20047;-45
2023/11/05 04:14:05;;;;;;;10.38;4.93;;;;;;;10.36;100.00;97917.78;5093432;28;20188;-45
2023/11/05 04:16:34;;;;;;;9.20;4.72;;;;;;;10.39;100.00;97905.97;5093189;28;20044;-45
2023/11/05 04:19:02;;;;;;;10.15;5.40;;;;;;;10.32;100.00;97901.22;5092666;28;20047;-45
2023/11/05 04:21:31;;;;;;;11.25;4.90;;;;;;;10.38;100.00;97896.31;5093068;28;20043;-45
2023/11/05 04:23:59;;;;;;;10.50;4.75;;;;;;;10.27;100.00;97870.69;5092740;28;20051;-45
2023/11/05 04:26:29;;;;;;;9.25;4.80;;;;;;;10.27;100.00;97866.22;5093213;28;20048;-45
2023/11/05 04:28:58;;;;;;;8.38;4.53;;;;;;;10.40;100.00;97881.00;5093139;28;20155;-47
2023/11/05 04:31:27;;;;;;;9.90;4.85;;;;;;;10.25;100.00;97860.19;5093112;28;20055;-46
2023/11/05 04:33:55;;;;;;;8.63;4.55;;;;;;;10.36;100.00;97852.97;5092952;28;20069;-44
2023/11/05 04:36:24;;;;;;;7.18;3.45;;;;;;;10.45;100.00;97849.44;5092897;28;20131;-44
2023/11/05 04:38:52;;;;;;;9.07;3.97;;;;;;;10.49;100.00;97848.13;5092865;28;20059;-46
2023/11/05 04:41:21;;;;;;;11.30;4.05;;;;;;;10.51;100.00;97844.31;5092832;28;20105;-45
2023/11/05 04:43:51;;;;;;;7.22;3.80;;;;;;;10.56;100.00;97846.53;5092870;28;20912;-44
2023/11/05 04:46:20;;;;;;;9.85;3.78;;;;;;;10.38;100.00;97840.34;5092651;28;20040;-45
2023/11/05 04:48:48;;;;;;;9.63;4.40;;;;;;;10.32;100.00;97825.78;5092644;28;20120;-45
2023/11/05 04:51:16;;;;;;;8.13;4.40;;;;;;;10.27;100.00;97812.91;5092472;28;20131;-46
2023/11/05 04:53:44;;;;;;;7.50;3.65;;;;;;;10.35;100.00;97819.34;5092698;28;20048;-45
2023/11/05 04:56:16;;;;;;;7.03;4.03;;;;;;;10.48;100.00;97804.66;5092374;28;20507;-45
2023/11/05 04:58:44;;;;;;;6.75;3.80;;;;;;;10.56;100.00;97806.56;5092478;28;20489;-45
2023/11/05 05:01:14;;;;;;;8.98;3.70;;;;;;;10.59;100.00;97798.25;5092150;28;20051;-43
2023/11/05 05:03:42;;;;;;;7.85;3.65;;;;;;;10.67;100.00;97790.34;5092255;28;20134;-45
2023/11/05 05:06:11;;;;;;;9.60;4.03;;;;;;;10.59;100.00;97780.44;5092432;28;20125;-46
2023/11/05 05:08:39;;;;;;;7.28;3.45;;;;;;;10.66;100.00;97786.00;5092211;28;20040;-44
2023/11/05 05:11:09;;;;;;;6.68;3.40;;;;;;;10.57;100.00;97789.56;5092161;28;20137;-45
2023/11/05 05:13:38;;;;;;;9.70;3.78;;;;;;;10.60;100.00;97797.25;5092229;28;20051;-46
2023/11/05 05:16:11;;;;;;;9.15;3.67;;;;;;;10.61;100.00;97793.59;5092023;28;20408;-44
2023/11/05 05:18:41;;;;;;;;;;;;;;;10.56;100.00;97811.91;5092504;28;20222;-43
2023/11/05 05:21:09;;;;;;;7.13;3.88;;;;;;;10.65;100.00;97783.50;5092109;28;20365;-45
2023/11/05 05:23:37;;;;;;;8.40;3.58;;;;;;;10.70;100.00;97800.69;5091765;28;20052;-45
2023/11/05 05:26:06;;;;;;;8.68;4.00;;;;;;;10.79;100.00;97814.94;5091939;28;20140;-44
2023/11/05 05:28:34;;;;;;;8.07;3.90;;;;;;;10.76;100.00;97821.41;5092062;28;20048;-45
2023/11/05 05:31:02;;;;;;;8.82;3.45;;;;;;;10.77;100.00;97814.25;5091079;28;20051;-44
2023/11/05 05:33:31;;;;;;;5.85;3.50;;;;;;;10.78;100.00;97795.44;5092231;28;20079;-45
2023/11/05 05:36:00;;;;;;;6.22;3.17;;;;;;;10.74;100.00;97791.41;5091797;28;20166;-44
2023/11/05 05:38:29;;;;;;;8.50;3.72;;;;;;;10.62;100.00;97795.31;5091784;28;20054;-45
2023/11/05 05:40:57;;;;;;;6.40;3.42;;;;;;;10.58;100.00;97793.91;5091658;28;20129;-45
2023/11/05 05:43:25;;;;;;;9.00;3.95;;;;;;;10.62;100.00;97799.81;5091885;28;20048;-44
2023/11/05 05:45:54;;;;;;;10.50;3.80;;;;;;;10.60;100.00;97803.44;5091753;28;20131;-45
2023/11/05 05:48:22;;;;;;;9.43;3.70;;;;;;;10.54;100.00;97800.56;5091684;28;20044;-45
2023/11/05 05:50:50;;;;;;;8.00;4.13;;;;;;;10.62;100.00;97791.81;5091637;28;20040;-47
2023/11/05 05:53:20;;;;;;;7.78;4.18;;;;;;;10.61;100.00;97790.94;5091895;28;20132;-45
2023/11/05 05:55:49;;;;;;;7.70;4.18;;;;;;;10.48;100.00;97782.50;5092042;28;20044;-45
2023/11/05 05:58:21;;;;;;;8.18;3.95;;;;;;;10.48;100.00;97782.50;5091524;28;20131;-44
2023/11/05 06:00:50;;;;;;;9.10;4.30;;;;;;;10.42;100.00;97772.41;5091413;28;20132;-44
2023/11/05 06:03:19;;;;;;;6.25;3.70;;;;;;;10.46;100.00;97752.50;5091416;28;20040;-45
2023/11/05 06:05:47;;;;;;;9.15;4.40;;;;;;;10.16;100.00;97721.69;5091449;28;20071;-44
2023/11/05 06:08:15;;;;;;;7.60;4.10;;;;;;;9.99;100.00;97686.06;5091303;28;20047;-44
2023/11/05 06:10:47;;;;;;;9.60;4.65;;;;;;;10.02;100.00;97683.09;5091119;28;20052;-45
2023/11/05 06:13:16;;;;;;;11.20;4.68;;;;;;;10.14;100.00;97705.03;5091265;28;20565;-46
2023/11/05 06:15:44;;;;;;;10.02;5.18;;;;;;;10.26;100.00;97714.50;5091313;28;20048;-45
2023/11/05 06:18:13;;;;;;;9.35;5.10;;;;;;;10.30;100.00;97726.50;5091084;28;20044;-45
2023/11/05 06:20:41;;;;;;;8.23;4.72;;;;;;;10.35;100.00;97715.41;5090935;28;20048;-44
2023/11/05 06:23:10;;;;;;;8.57;5.10;;;;;;;10.17;100.00;97713.53;5090725;28;20056;-45
2023/11/05 06:25:38;;;;;;;10.27;4.55;;;;;;;10.27;100.00;97727.66;5090972;28;20500;-44
2023/11/05 06:28:08;;;;;;;9.80;5.15;;;;;;;10.43;100.00;97736.81;5090952;28;20075;-45
2023/11/05 06:30:36;;;;;;;8.75;4.90;;;;;;;10.49;100.00;97726.38;5091021;28;20052;-44
2023/11/05 06:33:04;;;;;;;8.70;4.25;;;;;;;10.44;100.00;97711.84;5091011;28;20044;-43
2023/11/05 06:35:33;;;;;;;7.47;4.85;;;;;;;10.41;100.00;97693.47;5090821;28;20051;-44
2023/11/05 06:38:01;;;;;;;9.75;4.80;;;;;;;10.27;100.00;97652.22;5091065;28;20076;-44
2023/11/05 06:40:29;;;;;;;9.63;5.22;;;;;;;10.26;100.00;97627.41;5091108;28;20044;-44
2023/11/05 06:42:58;;;;;;;8.32;4.80;;;;;;;10.23;100.00;97619.75;5095166;28;20059;-43
2023/11/05 06:45:28;;;;;;;8.00;4.80;;;;;;;10.36;100.00;97619.34;5094910;28;20047;-43
2023/11/05 06:47:56;;;;;;;10.40;4.43;;;;;;;10.32;100.00;97616.13;5094948;28;20127;-45
2023/11/05 06:50:24;;;;;;;13.30;4.85;;;;;;;10.43;100.00;97603.56;5094915;28;20048;-43
2023/11/05 06:52:52;;;;;;;9.30;3.92;;;;;;;10.43;100.00;97590.25;5094709;28;20043;-44
2023/11/05 06:55:21;;;;;;;8.95;4.55;;;;;;;10.38;100.00;97595.19;5094894;28;20405;-44
2023/11/05 06:57:49;;;;;;;9.00;4.20;;;;;;;10.51;100.00;97590.28;5093731;28;20048;-45
2023/11/05 07:00:20;;;;;;;10.25;4.30;;;;;;;10.52;100.00;97574.16;5094727;28;20405;-43
2023/11/05 07:02:50;;;;;;;8.75;3.97;;;;;;;10.58;100.00;97570.84;5094597;28;20055;-45
2023/11/05 07:05:18;;;;;;;8.02;4.20;;;;;;;10.60;100.00;97552.84;5094603;28;20071;-44
2023/11/05 07:07:47;;;;;;;7.72;4.03;;;;;;;10.62;100.00;97555.38;5094562;28;20047;-45
2023/11/05 07:10:15;;;;;;;9.30;3.80;;;;;;;10.60;100.00;97541.34;5094516;28;20428;-44
2023/11/05 07:12:44;;;;;;;7.65;3.65;;;;;;;10.65;100.00;97533.75;5094626;28;20101;-45
2023/11/05 07:15:12;;;;;;;7.88;4.00;;;;;;;10.68;100.00;97528.09;5094398;28;20043;-44
2023/11/05 07:17:40;;;;;;;13.32;3.72;;;;;;;10.69;100.00;97512.91;5094393;28;20051;-45
2023/11/05 07:20:13;;;;;;;9.10;4.18;;;;;;;10.59;100.00;97518.38;5094535;28;20476;-46
2023/11/05 07:22:41;;;;;;;7.53;3.80;;;;;;;10.59;100.00;97513.88;5094247;28;20388;-44
2023/11/05 07:25:10;;;;;;;8.45;3.92;;;;;;;10.62;100.00;97522.56;5094145;28;20094;-45
2023/11/05 07:27:38;;;;;;;8.98;4.07;;;;;;;10.55;100.00;97523.19;5094081;28;20056;-44
2023/11/05 07:30:09;;;;;;;9.65;4.03;;;;;;;10.60;100.00;97528.03;5093963;28;20148;-43
2023/11/05 07:32:38;;;;;;;10.73;3.97;;;;;;;10.63;100.00;97525.06;5094368;28;20109;-43
2023/11/05 07:35:07;;;;;;;8.95;4.03;;;;;;;10.65;100.00;97508.91;5094265;28;20048;-43
2023/11/05 07:37:37;;;;;;;8.80;3.72;;;;;;;10.67;100.00;97521.09;5094299;28;20080;-44
2023/11/05 07:40:06;;;;;;;8.70;3.80;;;;;;;10.66;100.00;97503.41;5094156;28;20044;-44
2023/11/05 07:42:36;;;;;;;8.93;4.22;;;;;;;10.69;100.00;97496.94;5093760;28;20059;-44
2023/11/05 07:45:08;;;;;;;8.43;4.40;;;;;;;10.62;100.00;97488.75;5094166;28;20072;-44
2023/11/05 07:47:38;;;;;;;9.00;4.15;;;;;;;10.79;100.00;97498.47;5093991;28;20075;-45
2023/11/05 07:50:11;;;;;;;10.23;4.30;;;;;;;10.76;100.00;97488.13;5094117;28;20059;-45
2023/11/05 07:52:42;;;;;;;8.68;3.85;;;;;;;10.86;100.00;97478.16;5093040;28;20063;-46
2023/11/05 07:55:11;;;;;;;9.27;3.92;;;;;;;10.80;100.00;97478.81;5093470;28;20493;-44
2023/11/05 07:57:40;;;;;;;9.10;4.05;;;;;;;10.81;100.00;97480.50;5093891;28;20044;-45
2023/11/05 08:00:15;;;;;;;7.72;3.88;;;;;;;10.84;100.00;97474.00;5093517;28;20044;-46
2023/11/05 08:02:43;;;;;;;7.47;3.95;;;;;;;10.88;100.00;97473.50;5093751;28;20409;-44
2023/11/05 08:05:12;;;;;;;8.73;4.32;;;;;;;10.88;100.00;97486.84;5093675;28;20394;-44
2023/11/05 08:07:42;;;;;;;8.63;4.28;;;;;;;11.03;100.00;97484.41;5093806;28;20048;-45
2023/11/05 08:10:10;;;;;;;10.70;4.20;;;;;;;11.06;100.00;97477.91;5093535;28;20134;-44
2023/11/05 08:12:39;;;;;;;8.95;4.28;;;;;;;11.06;100.00;97477.91;5093668;28;20044;-43
2023/11/05 08:15:09;;;;;;;9.25;4.68;;;;;;;11.01;100.00;97473.06;5093492;28;20046;-44
2023/11/05 08:17:41;;;;;;;9.07;4.70;;;;;;;11.06;100.00;97467.22;5093495;28;20048;-44
2023/11/05 08:20:14;;;;;;;7.82;4.00;;;;;;;11.16;100.00;97465.25;5093193;28;20048;-45
2023/11/05 08:22:44;;;;;;;6.50;3.83;;;;;;;11.25;100.00;97474.13;5092913;28;20051;-45
2023/11/05 08:25:13;;;;;;;9.38;4.00;;;;;;;11.19;100.00;97472.91;5093198;28;20135;-45
2023/11/05 08:27:43;;;;;;;8.65;4.20;;;;;;;11.29;100.00;97483.44;5093229;28;20082;-44
2023/11/05 08:30:13;;;;;;;11.15;5.15;;;;;;;11.26;100.00;97502.47;5093038;28;20055;-45
2023/11/05 08:32:42;;;;;;;8.15;3.92;;;;;;;11.11;100.00;97489.75;5093055;28;20055;-45
2023/11/05 08:35:12;;;;;;;9.10;4.43;;;;;;;11.16;100.00;97467.91;5092912;28;20153;-47
2023/11/05 08:37:40;;;;;;;7.50;3.90;;;;;;;11.16;100.00;97473.25;5083219;28;20085;-45
2023/11/05 08:40:13;;;;;;;8.43;4.10;;;;;;;11.17;100.00;97461.59;5092974;28;20425;-46
2023/11/05 08:42:43;;;;;;;12.40;3.80;;;;;;;11.18;100.00;97444.56;5089197;28;20056;-46
2023/11/05 08:45:12;;;;;;;7.05;3.88;;;;;;;11.22;100.00;97445.94;5072384;28;20068;-44
2023/11/05 08:47:40;;;;;;;8.05;4.03;;;;;;;11.15;100.00;97439.56;5086406;28;20053;-44
2023/11/05 08:50:09;;;;;;;7.78;4.50;;;;;;;11.05;100.00;97436.22;5092691;28;20472;-45
2023/11/05 08:52:37;;;;;;;7.57;4.47;;;;;;;11.04;100.00;97432.72;5092305;28;20040;-45
2023/11/05 08:55:10;;;;;;;10.13;5.30;;;;;;;11.02;100.00;97428.56;5092611;28;20050;-43
2023/11/05 08:57:39;;;;;;;8.65;4.55;;;;;;;11.08;100.00;97425.22;5092335;28;20127;-45
2023/11/05 09:00:12;;;;;;;8.85;4.30;;;;;;;11.14;100.00;97425.41;5092107;28;20048;-44
2023/11/05 09:02:43;;;;;;;7.15;3.92;;;;;;;11.16;100.00;97422.56;5092276;28;20047;-45
2023/11/05 09:05:12;;;;;;;9.02;3.85;;;;;;;11.14;100.00;97412.06;5091402;28;20059;-45
2023/11/05 09:07:41;;;;;;;8.07;3.65;;;;;;;11.23;100.00;97415.59;5092729;28;20048;-45
2023/11/05 09:10:12;;;;;;;9.82;4.45;;;;;;;11.28;100.00;97418.56;5092679;28;20044;-46
2023/11/05 09:12:41;;;;;;;9.02;3.55;;;;;;;11.28;100.00;97418.56;5092328;28;20055;-43
2023/11/05 09:15:12;;;;;;;9.27;4.72;;;;;;;11.32;100.00;97414.59;5092223;28;20526;-45
2023/11/05 09:17:41;;;;;;;8.38;4.35;;;;;;;11.32;100.00;97422.59;5092570;28;20048;-45
2023/11/05 09:20:10;;;;;;;8.30;4.40;;;;;;;11.40;100.00;97443.13;5092424;28;20080;-46
2023/11/05 09:22:39;;;;;;;8.23;4.50;;;;;;;11.42;100.00;97468.63;5091991;28;20051;-46
2023/11/05 09:25:09;;;;;;;6.82;3.80;;;;;;;11.48;100.00;97509.84;5092258;28;20048;-45
2023/11/05 09:27:37;;;;;;;9.30;4.53;;;;;;;11.51;100.00;97543.41;5092230;28;20143;-47
2023/11/05 09:30:11;;;;;;;10.23;5.50;;;;;;;11.54;100.00;97545.72;5092276;28;20052;-45
2023/11/05 09:32:42;;;;;;;10.05;4.72;;;;;;;11.57;100.00;97546.22;5092528;28;20048;-48
2023/11/05 09:35:12;;;;;;;8.43;4.20;;;;;;;11.43;100.00;97513.00;5092533;28;20098;-45
2023/11/05 09:37:43;;;;;;;7.95;3.95;;;;;;;11.34;100.00;97449.94;5092407;28;20149;-43
2023/11/05 09:40:13;;;;;;;5.43;3.20;;;;;;;11.30;100.00;97421.09;5093315;28;20127;-44
2023/11/05 09:42:45;;;;;;;6.43;3.40;;;;;;;11.40;100.00;97406.59;5092500;28;20472;-45
2023/11/05 09:45:18;;;;;;;6.47;3.30;;;;;;;11.38;100.00;97360.53;5091310;28;20101;-43
2023/11/05 09:47:47;;;;;;;8.10;3.53;;;;;;;11.42;100.00;97364.56;5090320;28;20048;-44
2023/11/05 09:50:16;;;;;;;6.80;3.30;;;;;;;11.50;100.00;97362.88;5090849;28;20097;-45
2023/11/05 09:52:44;;;;;;;7.00;3.55;;;;;;;11.56;100.00;97357.69;5090617;28;20117;-42
2023/11/05 09:55:13;;;;;;;7.75;3.95;;;;;;;11.46;100.00;97307.16;5090843;28;20139;-43
2023/11/05 09:57:42;;;;;;;7.55;4.35;;;;;;;11.46;100.00;97299.16;5091741;28;20404;-43
2023/11/05 10:00:11;;;;;;;9.07;4.95;;;;;;;11.41;100.00;97290.84;5091250;28;20072;-44
2023/11/05 10:03:02;;;;;;;7.57;4.10;;;;;;;11.58;100.00;97315.66;5089483;28;20068;-43
2023/11/05 10:05:33;;;;;;;7.80;3.63;;;;;;;11.53;100.00;97269.13;5089642;28;20450;-44
2023/11/05 10:08:05;;;;;;;8.70;3.63;;;;;;;11.55;100.00;97211.03;5090816;28;20122;-43
2023/11/05 10:10:34;;;;;;;8.15;4.07;;;;;;;11.49;100.00;97191.22;5091021;28;20139;-43
2023/11/05 10:13:04;;;;;;;6.88;2.92;;;;;;;11.50;100.00;97235.59;5089498;28;20448;-43
2023/11/05 10:15:34;;;;;;;7.22;2.90;;;;;;;11.64;100.00;97274.09;5090492;28;20557;-43
2023/11/05 10:18:05;;;;;;;6.80;2.90;;;;;;;11.53;100.00;97301.97;5090686;28;20051;-46
2023/11/05 10:20:34;;;;;;;9.23;3.38;;;;;;;11.49;100.00;97334.53;5090767;28;20080;-43
2023/11/05 10:23:03;;;;;;;5.22;2.60;;;;;;;11.56;100.00;97330.16;5089531;28;20048;-43
2023/11/05 10:25:32;;;;;;;7.80;3.17;;;;;;;11.52;100.00;97264.78;5090315;28;20139;-44
2023/11/05 10:28:00;;;;;;;9.10;3.35;;;;;;;11.53;100.00;97266.44;5090366;28;20098;-43
2023/11/05 10:30:31;;;;;;;6.43;2.83;;;;;;;11.58;100.00;97314.81;5089896;28;20462;-43
2023/11/05 10:32:59;;;;;;;8.27;3.00;;;;;;;11.60;100.00;97240.75;5089034;28;20048;-42
2023/11/05 10:35:31;;;;;;;7.60;3.10;;;;;;;11.62;100.00;97289.44;5090008;28;20040;-47
2023/11/05 10:38:00;;;;;;;9.18;2.97;;;;;;;11.60;100.00;97291.47;5090085;28;20066;-43
2023/11/05 10:40:28;;;;;;;6.10;2.97;;;;;;;11.60;100.00;97320.84;5089860;28;20044;-44
2023/11/05 10:42:57;;;;;;;9.60;3.55;;;;;;;11.60;100.00;97313.66;5089344;28;20067;-43
2023/11/05 10:45:26;;;;;;;10.35;3.13;;;;;;;11.57;100.00;97289.94;5090526;28;20075;-44
2023/11/05 10:47:54;;;;;;;13.57;7.30;;;;;;;11.73;100.00;97294.41;5091569;28;20075;-44
2023/11/05 10:50:29;;;;;;;5.72;3.20;;;;;;;11.69;100.00;97309.97;5090249;28;20123;-43
2023/11/05 10:52:59;;;;;;;7.47;3.83;;;;;;;11.77;100.00;97301.06;5089191;28;20056;-45
2023/11/05 10:55:32;;;;;;;8.30;3.85;;;;;;;11.85;100.00;97298.41;5090071;28;20634;-42
2023/11/05 10:58:03;;;;;;;;;;;;;;;11.91;100.00;97326.28;5089202;28;20113;-44
2023/11/05 11:00:55;;;;;;;8.38;3.95;;;;;;;11.86;100.00;97323.28;5089149;28;19924;-42
2023/11/05 11:03:25;;;;;;;6.55;3.63;;;;;;;11.86;100.00;97328.63;5088045;28;20083;-43
2023/11/05 11:06:02;;;;;;;9.07;3.85;;;;;;;11.94;100.00;97324.09;5089202;28;20063;-44
2023/11/05 11:08:34;;;;;;;7.30;3.38;;;;;;;11.95;100.00;97341.78;5090587;28;20074;-44
2023/11/05 11:11:13;;;;;;;7.75;3.63;;;;;;;11.99;100.00;97323.59;5090114;28;20044;-43
2023/11/05 11:13:56;;;;;;;7.30;3.55;;;;;;;12.00;100.00;97295.88;5089231;28;20094;-44
2023/11/05 11:16:33;;;;;;;6.57;3.63;;;;;;;12.09;100.00;97277.97;5090201;28;20079;-43
2023/11/05 11:19:08;;;;;;;6.78;3.58;;;;;;;12.12;100.00;97304.34;5090014;28;20040;-44
2023/11/05 11:21:44;;;;;;;6.30;3.17;;;;;;;12.14;100.00;97302.31;5090047;28;20048;-43
2023/11/05 11:24:33;;;;;;;7.22;3.88;;;;;;;12.24;100.00;97308.28;5089590;28;20048;-44
2023/11/05 11:27:04;;;;;;;7.72;3.47;;;;;;;12.20;100.00;97296.28;5090460;28;20127;-43
2023/11/05 11:29:34;;;;;;;7.07;3.35;;;;;;;12.14;100.00;97321.84;5092949;28;20135;-43
2023/11/05 11:32:04;;;;;;;9.50;3.78;;;;;;;12.14;100.00;97340.56;5092405;28;20078;-45
2023/11/05 11:34:32;;;;;;;6.88;3.58;;;;;;;12.09;100.00;97364.31;5093777;28;20075;-43